createdAt,value
2018-02-03T00:01:03.523Z,8.90
2018-02-03T00:02:09.025Z,9.20
2018-02-03T00:03:14.536Z,10.90
2018-02-03T00:04:21.059Z,10.00
2018-02-03T00:05:25.565Z,9.20
2018-02-03T00:06:31.046Z,8.80
2018-02-03T00:07:36.584Z,9.00
2018-02-03T00:08:42.107Z,8.80
2018-02-03T00:09:47.590Z,8.70
2018-02-03T00:10:54.097Z,8.80
2018-02-03T00:11:58.638Z,9.00
2018-02-03T00:13:04.094Z,9.10
2018-02-03T00:14:09.625Z,8.70
2018-02-03T00:15:15.110Z,8.70
2018-02-03T00:16:20.619Z,8.40
2018-02-03T00:17:27.167Z,8.80
2018-02-03T00:18:31.650Z,8.70
2018-02-03T00:19:37.174Z,9.30
2018-02-03T00:20:42.670Z,9.30
2018-02-03T00:21:48.178Z,9.10
2018-02-03T00:22:53.679Z,9.00
2018-02-03T00:24:00.218Z,9.70
2018-02-03T00:25:04.691Z,9.30
2018-02-03T00:26:10.180Z,9.10
2018-02-03T00:27:15.739Z,8.30
2018-02-03T00:28:21.238Z,8.50
2018-02-03T00:29:26.713Z,8.80
2018-02-03T00:30:33.260Z,9.30
2018-02-03T00:31:37.729Z,9.70
2018-02-03T00:32:43.261Z,9.40
2018-02-03T00:33:48.805Z,9.60
2018-02-03T00:34:54.252Z,9.40
2018-02-03T00:35:59.779Z,9.40
2018-02-03T00:37:06.278Z,9.30
2018-02-03T00:38:10.788Z,9.40
2018-02-03T00:39:16.290Z,9.50
2018-02-03T00:40:21.804Z,9.00
2018-02-03T00:41:27.335Z,9.00
2018-02-03T00:42:32.805Z,9.30
2018-02-03T00:43:39.329Z,9.10
2018-02-03T00:44:43.814Z,9.80
2018-02-03T00:45:49.340Z,9.20
2018-02-03T00:46:54.841Z,8.40
2018-02-03T00:48:00.354Z,8.80
2018-02-03T00:49:05.858Z,8.80
2018-02-03T00:50:12.383Z,9.30
2018-02-03T00:51:16.870Z,9.10
2018-02-03T00:52:22.369Z,8.60
2018-02-03T00:53:27.901Z,9.30
2018-02-03T00:54:33.413Z,9.30
2018-02-03T00:55:38.905Z,9.40
2018-02-03T00:56:45.427Z,9.30
2018-02-03T00:57:49.926Z,8.10
2018-02-03T00:58:55.437Z,7.90
2018-02-03T01:00:00.950Z,8.60
2018-02-03T01:01:06.442Z,8.10
2018-02-03T01:02:11.964Z,7.70
2018-02-03T01:03:18.480Z,7.50
2018-02-03T01:04:22.959Z,7.40
2018-02-03T01:05:28.464Z,8.20
2018-02-03T01:06:34.069Z,7.60
2018-02-03T01:07:39.499Z,8.10
2018-02-03T01:08:44.999Z,7.60
2018-02-03T01:09:51.518Z,7.60
2018-02-03T01:10:56.017Z,6.90
2018-02-03T01:12:01.510Z,7.30
2018-02-03T01:13:07.047Z,7.50
2018-02-03T01:14:12.537Z,7.70
2018-02-03T01:15:18.046Z,7.30
2018-02-03T01:16:24.576Z,7.00
2018-02-03T01:17:29.049Z,7.90
2018-02-03T01:18:34.565Z,8.30
2018-02-03T01:19:40.065Z,8.00
2018-02-03T01:20:45.596Z,7.40
2018-02-03T01:21:51.084Z,8.00
2018-02-03T01:22:57.609Z,7.90
2018-02-03T01:24:02.101Z,7.80
2018-02-03T01:25:07.612Z,7.50
2018-02-03T01:26:13.111Z,7.60
2018-02-03T01:27:18.645Z,7.90
2018-02-03T01:28:24.134Z,8.10
2018-02-03T01:29:30.656Z,7.70
2018-02-03T01:30:35.168Z,7.70
2018-02-03T01:31:40.660Z,7.70
2018-02-03T01:32:46.168Z,7.50
2018-02-03T01:33:51.699Z,7.40
2018-02-03T01:34:57.198Z,7.80
2018-02-03T01:36:03.702Z,7.20
2018-02-03T01:37:08.197Z,7.90
2018-02-03T01:38:13.702Z,7.80
2018-02-03T01:39:19.223Z,7.90
2018-02-03T01:40:24.736Z,7.90
2018-02-03T01:41:30.222Z,8.60
2018-02-03T01:42:36.744Z,8.50
2018-02-03T01:43:41.254Z,8.50
2018-02-03T01:44:46.743Z,8.50
2018-02-03T01:45:52.254Z,8.90
2018-02-03T01:46:57.771Z,8.80
2018-02-03T01:48:03.273Z,8.80
2018-02-03T01:49:09.798Z,9.00
2018-02-03T01:50:14.286Z,8.90
2018-02-03T01:51:19.798Z,9.00
2018-02-03T01:52:25.302Z,8.60
2018-02-03T01:53:30.812Z,9.30
2018-02-03T01:54:36.333Z,10.00
2018-02-03T01:55:42.849Z,9.00
2018-02-03T01:56:47.331Z,9.30
2018-02-03T01:57:52.839Z,9.00
2018-02-03T01:58:58.339Z,8.60
2018-02-03T02:00:03.863Z,9.20
2018-02-03T02:01:09.358Z,8.40
2018-02-03T02:02:15.886Z,8.20
2018-02-03T02:03:20.380Z,8.10
2018-02-03T02:04:25.905Z,8.20
2018-02-03T02:05:31.476Z,8.00
2018-02-03T02:06:36.922Z,8.30
2018-02-03T02:07:42.399Z,7.90
2018-02-03T02:08:48.930Z,7.20
2018-02-03T02:09:53.424Z,8.30
2018-02-03T02:10:58.953Z,8.60
2018-02-03T02:12:04.450Z,7.70
2018-02-03T02:13:09.955Z,7.60
2018-02-03T02:14:15.461Z,8.20
2018-02-03T02:15:21.978Z,7.90
2018-02-03T02:16:26.490Z,8.00
2018-02-03T02:17:31.985Z,8.00
2018-02-03T02:18:37.473Z,8.50
2018-02-03T02:19:42.993Z,7.80
2018-02-03T02:20:48.506Z,7.80
2018-02-03T02:21:55.026Z,8.20
2018-02-03T02:22:59.510Z,8.50
2018-02-03T02:24:05.036Z,8.70
2018-02-03T02:25:10.525Z,8.80
2018-02-03T02:26:16.037Z,8.60
2018-02-03T02:27:21.566Z,8.70
2018-02-03T02:28:28.053Z,8.60
2018-02-03T02:29:32.571Z,8.80
2018-02-03T02:30:38.077Z,9.00
2018-02-03T02:31:43.582Z,9.00
2018-02-03T02:32:49.082Z,8.40
2018-02-03T02:33:54.595Z,8.40
2018-02-03T02:35:01.130Z,8.40
2018-02-03T02:36:05.603Z,8.80
2018-02-03T02:37:11.120Z,8.90
2018-02-03T02:38:16.652Z,8.70
2018-02-03T02:39:22.122Z,8.30
2018-02-03T02:40:27.638Z,8.40
2018-02-03T02:41:34.164Z,8.60
2018-02-03T02:42:38.647Z,8.60
2018-02-03T02:43:44.155Z,8.50
2018-02-03T02:44:49.671Z,7.80
2018-02-03T02:45:55.169Z,8.30
2018-02-03T02:47:00.691Z,8.40
2018-02-03T02:48:07.218Z,7.80
2018-02-03T02:49:11.710Z,8.10
2018-02-03T02:50:17.202Z,7.70
2018-02-03T02:51:22.720Z,8.50
2018-02-03T02:52:28.236Z,8.20
2018-02-03T02:53:33.733Z,8.00
2018-02-03T02:54:40.254Z,7.90
2018-02-03T02:55:44.750Z,8.40
2018-02-03T02:56:50.271Z,8.40
2018-02-03T02:57:55.755Z,8.70
2018-02-03T02:59:01.267Z,7.90
2018-02-03T03:00:06.771Z,8.70
2018-02-03T03:01:13.366Z,8.50
2018-02-03T03:02:17.790Z,8.70
2018-02-03T03:03:23.296Z,9.10
2018-02-03T03:04:28.803Z,8.10
2018-02-03T03:05:34.327Z,8.00
2018-02-03T03:06:39.829Z,8.20
2018-02-03T03:07:46.371Z,8.20
2018-02-03T03:08:50.835Z,8.20
2018-02-03T03:09:56.339Z,8.50
2018-02-03T03:11:01.863Z,8.20
2018-02-03T03:12:07.355Z,7.80
2018-02-03T03:13:12.864Z,8.40
2018-02-03T03:14:19.386Z,7.80
2018-02-03T03:15:23.890Z,8.40
2018-02-03T03:16:29.400Z,8.90
2018-02-03T03:17:34.892Z,8.10
2018-02-03T03:18:40.405Z,8.10
2018-02-03T03:19:45.941Z,7.90
2018-02-03T03:20:52.420Z,8.20
2018-02-03T03:21:56.945Z,8.00
2018-02-03T03:23:02.437Z,8.30
2018-02-03T03:24:07.936Z,8.10
2018-02-03T03:25:13.457Z,7.80
2018-02-03T03:26:18.956Z,7.90
2018-02-03T03:27:25.472Z,7.60
2018-02-03T03:28:29.971Z,7.60
2018-02-03T03:29:35.477Z,7.80
2018-02-03T03:30:40.981Z,7.50
2018-02-03T03:31:46.486Z,7.50
2018-02-03T03:32:51.996Z,7.10
2018-02-03T03:33:58.514Z,8.00
2018-02-03T03:35:03.013Z,7.00
2018-02-03T03:36:08.523Z,7.20
2018-02-03T03:37:14.041Z,7.60
2018-02-03T03:38:19.531Z,7.30
2018-02-03T03:39:25.117Z,7.20
2018-02-03T03:40:31.563Z,7.10
2018-02-03T03:41:36.064Z,6.50
2018-02-03T03:42:41.572Z,6.90
2018-02-03T03:43:47.070Z,6.80
2018-02-03T03:44:52.570Z,7.10
2018-02-03T03:45:58.089Z,6.70
2018-02-03T03:47:04.602Z,6.20
2018-02-03T03:48:09.096Z,6.60
2018-02-03T03:49:14.603Z,6.90
2018-02-03T03:50:20.106Z,6.40
2018-02-03T03:51:25.607Z,6.80
2018-02-03T03:52:31.124Z,7.40
2018-02-03T03:53:37.645Z,6.80
2018-02-03T03:54:42.133Z,7.30
2018-02-03T03:55:47.638Z,7.20
2018-02-03T03:56:53.156Z,6.90
2018-02-03T03:57:58.657Z,6.90
2018-02-03T03:59:04.170Z,6.10
2018-02-03T04:00:10.679Z,6.60
2018-02-03T04:01:15.175Z,6.50
2018-02-03T04:02:20.688Z,6.50
2018-02-03T04:03:26.194Z,6.60
2018-02-03T04:04:31.708Z,6.90
2018-02-03T04:05:37.223Z,6.70
2018-02-03T04:06:43.745Z,6.90
2018-02-03T04:07:48.224Z,7.20
2018-02-03T04:08:53.728Z,6.80
2018-02-03T04:09:59.240Z,7.20
2018-02-03T04:11:04.750Z,7.10
2018-02-03T04:12:10.251Z,6.70
2018-02-03T04:13:16.774Z,6.60
2018-02-03T04:14:21.265Z,7.70
2018-02-03T04:15:26.787Z,7.20
2018-02-03T04:16:32.282Z,7.20
2018-02-03T04:17:37.777Z,6.80
2018-02-03T04:18:43.293Z,7.60
2018-02-03T04:19:49.810Z,7.10
2018-02-03T04:20:54.300Z,7.40
2018-02-03T04:21:59.846Z,7.80
2018-02-03T04:23:05.315Z,6.90
2018-02-03T04:24:10.824Z,7.30
2018-02-03T04:25:16.351Z,6.80
2018-02-03T04:26:22.862Z,7.30
2018-02-03T04:27:27.405Z,8.00
2018-02-03T04:28:32.854Z,7.40
2018-02-03T04:29:38.366Z,7.30
2018-02-03T04:30:43.923Z,7.50
2018-02-03T04:31:49.384Z,7.80
2018-02-03T04:32:55.896Z,7.20
2018-02-03T04:34:00.392Z,6.90
2018-02-03T04:35:05.921Z,7.20
2018-02-03T04:36:11.408Z,6.90
2018-02-03T04:37:16.908Z,7.70
2018-02-03T04:38:22.427Z,7.10
2018-02-03T04:39:28.935Z,7.60
2018-02-03T04:40:33.436Z,7.90
2018-02-03T04:41:38.945Z,6.80
2018-02-03T04:42:44.442Z,7.50
2018-02-03T04:43:49.963Z,7.60
2018-02-03T04:44:55.469Z,7.70
2018-02-03T04:46:01.995Z,7.00
2018-02-03T04:47:06.485Z,6.70
2018-02-03T04:48:11.992Z,7.70
2018-02-03T04:49:17.487Z,7.50
2018-02-03T04:50:22.990Z,7.30
2018-02-03T04:51:28.517Z,7.10
2018-02-03T04:52:35.020Z,7.20
2018-02-03T04:53:39.518Z,7.80
2018-02-03T04:54:45.055Z,7.30
2018-02-03T04:55:50.544Z,7.50
2018-02-03T04:56:56.031Z,8.20
2018-02-03T04:58:01.571Z,7.70
2018-02-03T04:59:08.071Z,8.00
2018-02-03T05:00:12.579Z,7.80
2018-02-03T05:01:18.075Z,7.70
2018-02-03T05:02:23.578Z,7.30
2018-02-03T05:03:29.092Z,8.00
2018-02-03T05:04:34.594Z,8.00
2018-02-03T05:05:41.106Z,7.70
2018-02-03T05:06:45.613Z,8.00
2018-02-03T05:07:51.112Z,8.70
2018-02-03T05:08:56.617Z,9.20
2018-02-03T05:10:02.132Z,8.30
2018-02-03T05:11:07.631Z,8.60
2018-02-03T05:12:14.176Z,9.30
2018-02-03T05:13:18.672Z,8.90
2018-02-03T05:14:24.159Z,8.50
2018-02-03T05:15:29.666Z,9.30
2018-02-03T05:16:35.172Z,9.00
2018-02-03T05:17:40.676Z,8.90
2018-02-03T05:18:47.204Z,9.80
2018-02-03T05:19:51.703Z,9.20
2018-02-03T05:20:57.203Z,9.40
2018-02-03T05:22:02.713Z,9.60
2018-02-03T05:23:08.216Z,9.30
2018-02-03T05:24:13.730Z,9.40
2018-02-03T05:25:20.235Z,9.60
2018-02-03T05:26:24.735Z,9.70
2018-02-03T05:27:30.252Z,8.90
2018-02-03T05:28:35.756Z,9.70
2018-02-03T05:29:41.254Z,9.60
2018-02-03T05:30:46.770Z,9.60
2018-02-03T05:31:53.280Z,9.80
2018-02-03T05:32:57.776Z,10.20
2018-02-03T05:34:03.295Z,10.20
2018-02-03T05:35:08.793Z,10.30
2018-02-03T05:36:14.309Z,10.20
2018-02-03T05:37:19.824Z,11.00
2018-02-03T05:38:26.334Z,11.10
2018-02-03T05:39:30.812Z,10.00
2018-02-03T05:40:36.349Z,11.10
2018-02-03T05:41:41.850Z,10.50
2018-02-03T05:42:47.357Z,9.90
2018-02-03T05:43:52.868Z,10.10
2018-02-03T05:44:59.364Z,11.10
2018-02-03T05:46:03.890Z,10.60
2018-02-03T05:47:09.372Z,10.20
2018-02-03T05:48:14.882Z,11.50
2018-02-03T05:49:20.390Z,10.20
2018-02-03T05:50:25.891Z,11.70
2018-02-03T05:51:32.415Z,10.00
2018-02-03T05:52:36.905Z,10.50
2018-02-03T05:53:42.432Z,10.20
2018-02-03T05:54:47.934Z,10.90
2018-02-03T05:55:53.432Z,10.20
2018-02-03T05:56:58.931Z,10.90
2018-02-03T05:58:05.451Z,10.10
2018-02-03T05:59:09.950Z,10.40
2018-02-03T06:00:15.469Z,10.10
2018-02-03T06:01:20.974Z,10.50
2018-02-03T06:02:26.481Z,9.90
2018-02-03T06:03:31.980Z,9.80
2018-02-03T06:04:38.495Z,9.80
2018-02-03T06:05:42.994Z,9.60
2018-02-03T06:06:48.499Z,10.20
2018-02-03T06:07:54.031Z,9.80
2018-02-03T06:08:59.519Z,9.70
2018-02-03T06:10:05.018Z,9.50
2018-02-03T06:11:11.548Z,9.70
2018-02-03T06:12:16.065Z,10.00
2018-02-03T06:13:21.546Z,9.80
2018-02-03T06:14:27.053Z,9.70
2018-02-03T06:15:32.564Z,9.90
2018-02-03T06:16:38.066Z,9.90
2018-02-03T06:17:44.603Z,10.10
2018-02-03T06:18:49.079Z,9.90
2018-02-03T06:19:54.587Z,10.10
2018-02-03T06:21:00.105Z,10.30
2018-02-03T06:22:05.600Z,10.30
2018-02-03T06:23:11.120Z,9.80
2018-02-03T06:24:17.623Z,10.40
2018-02-03T06:25:22.125Z,10.20
2018-02-03T06:26:27.622Z,9.80
2018-02-03T06:27:33.140Z,10.10
2018-02-03T06:28:38.645Z,10.10
2018-02-03T06:29:44.148Z,9.90
2018-02-03T06:30:50.672Z,10.10
2018-02-03T06:31:55.161Z,9.80
2018-02-03T06:33:00.671Z,9.80
2018-02-03T06:34:06.183Z,10.10
2018-02-03T06:35:11.686Z,10.90
2018-02-03T06:36:17.190Z,10.30
2018-02-03T06:37:23.705Z,10.70
2018-02-03T06:38:28.203Z,10.40
2018-02-03T06:39:33.729Z,10.80
2018-02-03T06:40:39.212Z,10.60
2018-02-03T06:41:44.721Z,10.90
2018-02-03T06:42:50.287Z,11.20
2018-02-03T06:43:56.739Z,11.60
2018-02-03T06:45:01.257Z,11.20
2018-02-03T06:46:06.756Z,11.20
2018-02-03T06:47:12.259Z,11.20
2018-02-03T06:48:17.785Z,11.60
2018-02-03T06:49:23.286Z,11.30
2018-02-03T06:50:29.796Z,11.20
2018-02-03T06:51:34.292Z,11.40
2018-02-03T06:52:39.822Z,11.00
2018-02-03T06:53:45.313Z,11.00
2018-02-03T06:54:50.813Z,10.50
2018-02-03T06:55:56.310Z,10.10
2018-02-03T06:57:02.893Z,10.80
2018-02-03T06:58:07.324Z,11.10
2018-02-03T06:59:12.829Z,11.40
2018-02-03T07:00:18.354Z,11.00
2018-02-03T07:01:23.855Z,10.70
2018-02-03T07:02:29.366Z,11.10
2018-02-03T07:03:35.869Z,11.40
2018-02-03T07:04:40.363Z,11.20
2018-02-03T07:05:45.900Z,10.60
2018-02-03T07:06:51.380Z,10.20
2018-02-03T07:07:56.893Z,10.70
2018-02-03T07:09:02.416Z,11.20
2018-02-03T07:10:08.912Z,11.90
2018-02-03T07:11:13.409Z,11.40
2018-02-03T07:12:18.928Z,12.90
2018-02-03T07:13:24.430Z,11.90
2018-02-03T07:14:29.926Z,11.40
2018-02-03T07:15:35.456Z,11.60
2018-02-03T07:16:41.970Z,11.70
2018-02-03T07:17:46.455Z,11.80
2018-02-03T07:18:51.991Z,11.90
2018-02-03T07:19:57.476Z,11.50
2018-02-03T07:21:02.988Z,11.70
2018-02-03T07:22:08.488Z,11.40
2018-02-03T07:23:15.020Z,12.20
2018-02-03T07:24:19.500Z,12.30
2018-02-03T07:25:25.004Z,12.30
2018-02-03T07:26:30.525Z,11.50
2018-02-03T07:27:36.025Z,11.90
2018-02-03T07:28:41.526Z,11.60
2018-02-03T07:29:48.051Z,11.80
2018-02-03T07:30:52.547Z,10.30
2018-02-03T07:31:58.053Z,10.90
2018-02-03T07:33:03.546Z,10.80
2018-02-03T07:34:09.067Z,11.70
2018-02-03T07:35:14.571Z,11.10
2018-02-03T07:36:21.100Z,12.30
2018-02-03T07:37:25.580Z,12.20
2018-02-03T07:38:31.089Z,12.60
2018-02-03T07:39:36.592Z,11.60
2018-02-03T07:40:42.103Z,12.90
2018-02-03T07:41:47.622Z,13.00
2018-02-03T07:42:54.168Z,13.90
2018-02-03T07:43:58.706Z,13.90
2018-02-03T07:45:04.142Z,14.10
2018-02-03T07:46:09.667Z,14.20
2018-02-03T07:47:15.147Z,14.10
2018-02-03T07:48:20.670Z,15.00
2018-02-03T07:49:27.170Z,14.70
2018-02-03T07:50:31.674Z,14.30
2018-02-03T07:51:37.174Z,15.30
2018-02-03T07:52:42.684Z,14.20
2018-02-03T07:53:48.185Z,14.70
2018-02-03T07:54:53.692Z,14.60
2018-02-03T07:56:00.220Z,15.10
2018-02-03T07:57:04.736Z,15.10
2018-02-03T07:58:10.236Z,15.60
2018-02-03T07:59:15.724Z,15.60
2018-02-03T08:00:21.232Z,15.70
2018-02-03T08:01:26.732Z,15.30
2018-02-03T08:02:33.250Z,51.40
2018-02-03T08:03:37.755Z,16.70
2018-02-03T08:04:43.274Z,16.30
2018-02-03T08:05:48.781Z,15.70
2018-02-03T08:06:54.296Z,15.70
2018-02-03T08:07:59.793Z,15.30
2018-02-03T08:09:06.292Z,16.40
2018-02-03T08:10:10.801Z,15.40
2018-02-03T08:11:16.320Z,16.40
2018-02-03T08:12:21.804Z,16.70
2018-02-03T08:13:27.315Z,16.20
2018-02-03T08:14:32.810Z,17.00
2018-02-03T08:15:39.352Z,16.20
2018-02-03T08:16:43.831Z,16.00
2018-02-03T08:17:49.361Z,15.80
2018-02-03T08:18:54.861Z,16.80
2018-02-03T08:20:00.354Z,16.00
2018-02-03T08:21:05.861Z,16.30
2018-02-03T08:22:12.376Z,16.20
2018-02-03T08:23:16.879Z,16.60
2018-02-03T08:24:22.383Z,16.30
2018-02-03T08:25:27.885Z,15.90
2018-02-03T08:26:33.423Z,16.40
2018-02-03T08:27:38.898Z,16.80
2018-02-03T08:28:45.442Z,16.90
2018-02-03T08:29:49.914Z,16.30
2018-02-03T08:30:55.452Z,17.00
2018-02-03T08:32:01.060Z,16.60
2018-02-03T08:33:06.456Z,17.50
2018-02-03T08:34:11.960Z,17.10
2018-02-03T08:35:18.521Z,17.30
2018-02-03T08:36:22.975Z,16.90
2018-02-03T08:37:28.535Z,17.30
2018-02-03T08:38:33.971Z,17.90
2018-02-03T08:39:39.491Z,18.20
2018-02-03T08:40:44.996Z,18.60
2018-02-03T08:41:51.500Z,18.20
2018-02-03T08:42:56.016Z,17.50
2018-02-03T08:44:01.525Z,18.30
2018-02-03T08:45:07.047Z,19.50
2018-02-03T08:46:12.533Z,18.40
2018-02-03T08:47:18.058Z,18.60
2018-02-03T08:48:24.558Z,18.70
2018-02-03T08:49:29.060Z,19.50
2018-02-03T08:50:34.579Z,18.80
2018-02-03T08:51:40.066Z,18.00
2018-02-03T08:52:45.581Z,18.40
2018-02-03T08:53:51.086Z,17.30
2018-02-03T08:54:57.603Z,17.10
2018-02-03T08:56:02.098Z,18.90
2018-02-03T08:57:07.596Z,18.70
2018-02-03T08:58:13.100Z,18.80
2018-02-03T08:59:18.625Z,19.10
2018-02-03T09:00:24.125Z,19.50
2018-02-03T09:01:30.658Z,19.20
2018-02-03T09:02:35.142Z,18.30
2018-02-03T09:03:40.658Z,18.40
2018-02-03T09:04:46.214Z,18.90
2018-02-03T09:05:51.669Z,19.00
2018-02-03T09:06:57.178Z,18.30
2018-02-03T09:08:03.700Z,17.90
2018-02-03T09:09:08.185Z,18.30
2018-02-03T09:10:13.685Z,18.40
2018-02-03T09:11:19.224Z,18.80
2018-02-03T09:12:24.726Z,19.30
2018-02-03T09:13:30.209Z,19.50
2018-02-03T09:14:36.736Z,19.00
2018-02-03T09:15:41.259Z,18.90
2018-02-03T09:16:46.738Z,18.60
2018-02-03T09:17:52.227Z,19.60
2018-02-03T09:18:57.755Z,20.20
2018-02-03T09:20:03.263Z,20.50
2018-02-03T09:21:09.781Z,19.50
2018-02-03T09:22:14.278Z,20.30
2018-02-03T09:23:19.768Z,20.40
2018-02-03T09:24:25.292Z,21.50
2018-02-03T09:25:30.773Z,22.00
2018-02-03T09:26:36.297Z,21.80
2018-02-03T09:27:42.811Z,21.60
2018-02-03T09:28:47.319Z,21.20
2018-02-03T09:29:52.822Z,21.30
2018-02-03T09:30:58.352Z,20.90
2018-02-03T09:32:03.840Z,21.90
2018-02-03T09:33:09.351Z,21.40
2018-02-03T09:34:15.876Z,21.40
2018-02-03T09:35:20.356Z,20.80
2018-02-03T09:36:25.864Z,21.70
2018-02-03T09:37:31.372Z,21.30
2018-02-03T09:38:36.890Z,21.10
2018-02-03T09:39:42.389Z,20.50
2018-02-03T09:40:48.893Z,21.30
2018-02-03T09:41:53.418Z,20.10
2018-02-03T09:42:58.923Z,20.90
2018-02-03T09:44:04.407Z,21.00
2018-02-03T09:45:09.921Z,20.70
2018-02-03T09:46:15.424Z,20.50
2018-02-03T09:47:21.950Z,19.70
2018-02-03T09:48:26.451Z,19.40
2018-02-03T09:49:31.964Z,18.50
2018-02-03T09:50:37.467Z,19.10
2018-02-03T09:51:42.985Z,20.00
2018-02-03T09:52:48.462Z,18.70
2018-02-03T09:53:55.006Z,18.70
2018-02-03T09:54:59.502Z,19.20
2018-02-03T09:56:04.987Z,18.90
2018-02-03T09:57:10.485Z,17.90
2018-02-03T09:58:16.008Z,17.80
2018-02-03T09:59:21.526Z,17.30
2018-02-03T10:00:28.037Z,17.10
2018-02-03T10:01:32.527Z,18.00
2018-02-03T10:02:38.041Z,16.60
2018-02-03T10:03:43.538Z,17.60
2018-02-03T10:04:49.062Z,16.40
2018-02-03T10:05:54.676Z,16.40
2018-02-03T10:07:01.083Z,17.40
2018-02-03T10:08:05.643Z,17.60
2018-02-03T10:09:11.076Z,16.80
2018-02-03T10:10:16.585Z,15.70
2018-02-03T10:11:22.100Z,16.00
2018-02-03T10:12:27.599Z,15.70
2018-02-03T10:13:34.127Z,16.20
2018-02-03T10:14:38.626Z,16.00
2018-02-03T10:15:44.133Z,16.20
2018-02-03T10:16:49.624Z,15.70
2018-02-03T10:17:55.171Z,13.70
2018-02-03T10:19:00.651Z,14.20
2018-02-03T10:20:07.181Z,16.20
2018-02-03T10:21:11.655Z,14.90
2018-02-03T10:22:17.157Z,15.00
2018-02-03T10:23:22.689Z,15.30
2018-02-03T10:24:28.182Z,15.10
2018-02-03T10:25:33.709Z,14.30
2018-02-03T10:26:40.265Z,13.90
2018-02-03T10:27:44.707Z,13.20
2018-02-03T10:28:50.217Z,13.00
2018-02-03T10:29:55.727Z,13.60
2018-02-03T10:31:01.248Z,13.40
2018-02-03T10:32:06.744Z,13.40
2018-02-03T10:33:13.262Z,12.80
2018-02-03T10:34:17.751Z,13.50
2018-02-03T10:35:23.272Z,12.60
2018-02-03T10:36:28.774Z,12.70
2018-02-03T10:37:34.293Z,12.70
2018-02-03T10:38:39.784Z,13.00
2018-02-03T10:39:46.309Z,12.40
2018-02-03T10:40:50.798Z,12.90
2018-02-03T10:41:56.315Z,13.00
2018-02-03T10:43:01.822Z,12.60
2018-02-03T10:44:07.391Z,13.30
2018-02-03T10:45:12.849Z,12.70
2018-02-03T10:46:19.363Z,12.70
2018-02-03T10:47:23.853Z,13.10
2018-02-03T10:48:29.360Z,11.90
2018-02-03T10:49:34.862Z,12.70
2018-02-03T10:50:40.382Z,13.00
2018-02-03T10:51:45.888Z,11.60
2018-02-03T10:52:52.423Z,12.30
2018-02-03T10:53:56.911Z,12.80
2018-02-03T10:55:02.430Z,12.90
2018-02-03T10:56:07.910Z,13.00
2018-02-03T10:57:13.421Z,11.00
2018-02-03T10:58:18.925Z,11.70
2018-02-03T10:59:25.442Z,12.10
2018-02-03T11:00:29.938Z,12.10
2018-02-03T11:01:35.461Z,12.40
2018-02-03T11:02:40.989Z,12.20
2018-02-03T11:03:46.476Z,12.50
2018-02-03T11:04:51.986Z,12.20
2018-02-03T11:05:58.622Z,12.70
2018-02-03T11:07:02.981Z,12.20
2018-02-03T11:08:08.494Z,12.40
2018-02-03T11:09:14.080Z,11.90
2018-02-03T11:10:19.503Z,12.60
2018-02-03T11:11:25.037Z,12.60
2018-02-03T11:12:31.530Z,12.20
2018-02-03T11:13:36.039Z,12.90
2018-02-03T11:14:41.557Z,12.60
2018-02-03T11:15:47.056Z,12.60
2018-02-03T11:16:52.589Z,12.40
2018-02-03T11:17:58.081Z,12.00
2018-02-03T11:19:04.593Z,11.90
2018-02-03T11:20:09.088Z,12.30
2018-02-03T11:21:14.604Z,11.30
2018-02-03T11:22:20.110Z,12.70
2018-02-03T11:23:25.641Z,13.00
2018-02-03T11:24:31.137Z,12.30
2018-02-03T11:25:37.672Z,11.40
2018-02-03T11:26:42.154Z,11.60
2018-02-03T11:27:47.653Z,9.70
2018-02-03T11:28:53.165Z,10.00
2018-02-03T11:29:58.668Z,10.50
2018-02-03T11:31:04.167Z,9.60
2018-02-03T11:32:10.697Z,9.90
2018-02-03T11:33:15.190Z,9.30
2018-02-03T11:34:20.760Z,8.80
2018-02-03T11:35:26.210Z,9.40
2018-02-03T11:36:31.737Z,9.60
2018-02-03T11:37:37.327Z,9.10
2018-02-03T11:38:43.739Z,9.90
2018-02-03T11:39:48.246Z,9.50
2018-02-03T11:40:53.747Z,9.90
2018-02-03T11:41:59.256Z,9.10
2018-02-03T11:43:04.766Z,8.60
2018-02-03T11:44:10.261Z,8.60
2018-02-03T11:45:16.852Z,8.80
2018-02-03T11:46:21.303Z,9.60
2018-02-03T11:47:26.817Z,10.20
2018-02-03T11:48:32.319Z,9.30
2018-02-03T11:49:37.814Z,8.70
2018-02-03T11:50:43.326Z,9.10
2018-02-03T11:51:49.860Z,9.60
2018-02-03T11:52:54.331Z,8.80
2018-02-03T11:53:59.863Z,9.30
2018-02-03T11:55:05.373Z,9.80
2018-02-03T11:56:10.874Z,10.00
2018-02-03T11:57:16.378Z,9.80
2018-02-03T11:58:22.898Z,9.30
2018-02-03T11:59:27.390Z,9.60
2018-02-03T12:00:32.915Z,9.70
2018-02-03T12:01:38.450Z,8.00
2018-02-03T12:02:43.937Z,8.40
2018-02-03T12:03:49.444Z,8.00
2018-02-03T12:04:55.964Z,8.50
2018-02-03T12:06:00.453Z,8.00
2018-02-03T12:07:05.985Z,8.20
2018-02-03T12:08:11.554Z,8.40
2018-02-03T12:09:16.992Z,8.20
2018-02-03T12:10:22.518Z,8.10
2018-02-03T12:11:29.011Z,8.50
2018-02-03T12:12:33.522Z,8.20
2018-02-03T12:13:39.026Z,9.10
2018-02-03T12:14:44.521Z,8.70
2018-02-03T12:15:50.046Z,8.70
2018-02-03T12:16:55.551Z,9.00
2018-02-03T12:18:02.074Z,9.00
2018-02-03T12:19:06.564Z,9.00
2018-02-03T12:20:12.088Z,8.40
2018-02-03T12:21:17.594Z,8.50
2018-02-03T12:22:23.119Z,8.80
2018-02-03T12:23:28.604Z,8.50
2018-02-03T12:24:35.110Z,8.50
2018-02-03T12:25:39.619Z,8.40
2018-02-03T12:26:45.137Z,8.60
2018-02-03T12:27:50.670Z,8.90
2018-02-03T12:28:56.141Z,8.00
2018-02-03T12:30:01.663Z,9.40
2018-02-03T12:31:08.169Z,8.50
2018-02-03T12:32:12.655Z,8.60
2018-02-03T12:33:18.180Z,8.30
2018-02-03T12:34:23.686Z,8.40
2018-02-03T12:35:29.218Z,8.40
2018-02-03T12:36:34.708Z,8.10
2018-02-03T12:37:41.238Z,8.10
2018-02-03T12:38:45.710Z,8.50
2018-02-03T12:39:51.238Z,8.30
2018-02-03T12:40:56.745Z,7.60
2018-02-03T12:42:02.248Z,7.60
2018-02-03T12:43:07.750Z,7.30
2018-02-03T12:44:14.278Z,7.60
2018-02-03T12:45:18.769Z,8.00
2018-02-03T12:46:24.277Z,8.10
2018-02-03T12:47:29.774Z,7.90
2018-02-03T12:48:35.312Z,8.30
2018-02-03T12:49:40.825Z,8.30
2018-02-03T12:50:47.347Z,8.20
2018-02-03T12:51:51.836Z,7.70
2018-02-03T12:52:57.362Z,8.60
2018-02-03T12:54:02.865Z,8.00
2018-02-03T12:55:08.365Z,9.10
2018-02-03T12:56:13.861Z,8.80
2018-02-03T12:57:20.397Z,8.20
2018-02-03T12:58:24.875Z,9.30
2018-02-03T12:59:30.383Z,8.60
2018-02-03T13:00:35.925Z,9.10
2018-02-03T13:01:41.410Z,8.30
2018-02-03T13:02:46.963Z,9.00
2018-02-03T13:03:53.462Z,8.50
2018-02-03T13:04:57.952Z,9.00
2018-02-03T13:06:03.448Z,8.30
2018-02-03T13:07:08.951Z,8.10
2018-02-03T13:08:14.466Z,8.20
2018-02-03T13:09:19.978Z,8.90
2018-02-03T13:10:26.570Z,8.60
2018-02-03T13:11:31.008Z,8.30
2018-02-03T13:12:36.517Z,7.50
2018-02-03T13:13:42.055Z,8.70
2018-02-03T13:14:47.541Z,8.70
2018-02-03T13:15:53.037Z,8.50
2018-02-03T13:16:59.567Z,8.50
2018-02-03T13:18:04.065Z,8.10
2018-02-03T13:19:09.581Z,8.10
2018-02-03T13:20:15.084Z,8.30
2018-02-03T13:21:20.616Z,8.10
2018-02-03T13:22:26.131Z,8.40
2018-02-03T13:23:32.642Z,9.00
2018-02-03T13:24:37.147Z,8.40
2018-02-03T13:25:42.654Z,8.00
2018-02-03T13:26:48.187Z,8.10
2018-02-03T13:27:53.688Z,8.10
2018-02-03T13:28:59.174Z,8.30
2018-02-03T13:30:05.719Z,8.40
2018-02-03T13:31:10.224Z,8.60
2018-02-03T13:32:15.732Z,8.90
2018-02-03T13:33:21.258Z,8.50
2018-02-03T13:34:26.752Z,8.30
2018-02-03T13:35:32.275Z,8.40
2018-02-03T13:36:38.775Z,8.30
2018-02-03T13:37:43.296Z,8.30
2018-02-03T13:38:48.819Z,9.50
2018-02-03T13:39:54.313Z,8.70
2018-02-03T13:40:59.824Z,7.90
2018-02-03T13:42:05.329Z,8.10
2018-02-03T13:43:11.853Z,9.40
2018-02-03T13:44:16.368Z,8.80
2018-02-03T13:45:21.856Z,8.40
2018-02-03T13:46:27.377Z,12.20
2018-02-03T13:47:32.902Z,8.60
2018-02-03T13:48:38.393Z,8.20
2018-02-03T13:49:44.920Z,8.70
2018-02-03T13:50:49.400Z,9.30
2018-02-03T13:51:54.957Z,9.60
2018-02-03T13:53:00.447Z,9.60
2018-02-03T13:54:05.944Z,10.00
2018-02-03T13:55:11.461Z,10.40
2018-02-03T13:56:17.985Z,10.50
2018-02-03T13:57:22.472Z,13.60
2018-02-03T13:58:27.995Z,11.00
2018-02-03T13:59:33.488Z,11.70
2018-02-03T14:00:39.002Z,9.80
2018-02-03T14:01:44.524Z,11.30
2018-02-03T14:02:51.053Z,9.80
2018-02-03T14:03:55.529Z,9.90
2018-02-03T14:05:01.034Z,9.00
2018-02-03T14:06:06.554Z,9.50
2018-02-03T14:07:12.056Z,9.10
2018-02-03T14:08:17.601Z,9.70
2018-02-03T14:09:24.105Z,8.60
2018-02-03T14:10:28.592Z,7.90
2018-02-03T14:11:34.129Z,7.80
2018-02-03T14:12:39.613Z,8.20
2018-02-03T14:13:45.133Z,7.80
2018-02-03T14:14:50.660Z,7.50
2018-02-03T14:15:57.157Z,7.80
2018-02-03T14:17:01.654Z,7.60
2018-02-03T14:18:07.179Z,7.10
2018-02-03T14:19:12.682Z,7.40
2018-02-03T14:20:18.186Z,7.90